FCO weather

Leonardo da Vinci–Fiumicino Airport
Rome, Lazio, Italy

Public forecast

Using degrees Celsius for public forecast. Weather courtesy of forecast.io.

METAR (pilot weather report)

Retrieved 2017/08/17 03:20 UTC (0 seconds ago):

LIRF 170320Z 33004KT CAVOK 18/12 Q1015 NOSIG

TAF (pilot weather forecast)

Forecast is more than 12 hours old.

Retrieved 2017/08/16 00:00 UTC (1 day ago):

TAF LIRF 162300Z 1700/1806 VRB04KT CAVOK BECMG 1710/1712 27012KT BECMG 1718/1720 VRB04KT